createdAt,value
2018-03-26T00:00:12.504Z,0.40
2018-03-26T00:02:41.685Z,0.50
2018-03-26T00:05:10.925Z,0.70
2018-03-26T00:07:40.180Z,0.80
2018-03-26T00:10:09.452Z,0.90
2018-03-26T00:12:38.700Z,1.00
2018-03-26T00:15:07.897Z,1.00
2018-03-26T00:17:37.233Z,1.10
2018-03-26T00:20:07.293Z,1.20
2018-03-26T00:22:36.519Z,1.20
2018-03-26T00:25:05.735Z,1.30
2018-03-26T00:27:35.029Z,1.30
2018-03-26T00:30:04.274Z,1.30
2018-03-26T00:32:34.375Z,1.40
2018-03-26T00:35:03.585Z,1.40
2018-03-26T00:37:32.846Z,1.50
2018-03-26T00:40:02.774Z,1.50
2018-03-26T00:42:32.854Z,1.50
2018-03-26T00:45:02.079Z,1.40
2018-03-26T00:47:31.288Z,1.40
2018-03-26T00:50:00.537Z,1.50
2018-03-26T00:52:29.908Z,1.50
2018-03-26T00:54:59.129Z,1.50
2018-03-26T00:57:29.247Z,1.30
2018-03-26T00:59:58.557Z,1.30
2018-03-26T01:02:27.774Z,1.30
2018-03-26T01:04:56.962Z,1.10
2018-03-26T01:07:26.175Z,1.10
2018-03-26T01:09:55.487Z,1.10
2018-03-26T01:12:24.821Z,1.00
2018-03-26T01:14:54.052Z,1.00
2018-03-26T01:17:23.343Z,0.90
2018-03-26T01:19:52.621Z,0.90
2018-03-26T01:22:21.890Z,0.70
2018-03-26T01:24:51.891Z,0.60
2018-03-26T01:27:21.118Z,0.60
2018-03-26T01:29:54.861Z,0.50
2018-03-26T01:32:25.929Z,0.50
2018-03-26T01:34:56.126Z,0.50
2018-03-26T01:37:25.309Z,0.50
2018-03-26T01:39:54.579Z,0.50
2018-03-26T01:45:24.169Z,0.60
2018-03-26T01:47:53.404Z,0.70
2018-03-26T01:50:27.104Z,0.80
2018-03-26T01:52:56.380Z,0.90
2018-03-26T01:55:25.583Z,1.00
2018-03-26T01:57:54.805Z,1.00
2018-03-26T02:00:24.780Z,1.30
2018-03-26T02:02:54.043Z,1.30
2018-03-26T02:05:23.320Z,1.40
2018-03-26T02:07:52.529Z,1.50
2018-03-26T02:10:21.786Z,1.60
2018-03-26T02:12:51.029Z,1.70
2018-03-26T02:15:20.212Z,1.80
2018-03-26T02:17:53.922Z,1.90
2018-03-26T02:20:36.693Z,2.00
2018-03-26T02:23:05.886Z,1.90
2018-03-26T02:25:35.121Z,2.00
2018-03-26T02:28:04.331Z,2.00
2018-03-26T02:30:33.502Z,2.10
2018-03-26T02:33:02.855Z,2.20
2018-03-26T02:35:32.130Z,2.20
2018-03-26T02:38:07.004Z,2.30
2018-03-26T02:40:36.205Z,2.30
2018-03-26T02:43:05.442Z,2.30
2018-03-26T02:45:35.446Z,2.30
2018-03-26T02:48:04.677Z,2.30
2018-03-26T02:50:36.048Z,2.30
2018-03-26T02:53:05.260Z,2.30
2018-03-26T02:55:34.558Z,2.30
2018-03-26T02:58:12.336Z,2.30
2018-03-26T03:00:41.557Z,2.30
2018-03-26T03:03:10.803Z,2.30
2018-03-26T03:05:40.291Z,2.40
2018-03-26T03:08:09.515Z,2.30
2018-03-26T03:10:38.837Z,2.40
2018-03-26T03:13:08.080Z,2.50
2018-03-26T03:15:38.056Z,2.40
2018-03-26T03:18:07.269Z,2.40
2018-03-26T03:20:36.505Z,2.40
2018-03-26T03:23:05.712Z,2.40
2018-03-26T03:25:34.904Z,2.40
2018-03-26T03:28:04.118Z,2.40
2018-03-26T03:30:34.630Z,2.40
2018-03-26T03:33:03.979Z,2.40
2018-03-26T03:35:33.195Z,2.50
2018-03-26T03:38:02.500Z,2.50
2018-03-26T03:40:31.740Z,2.50
2018-03-26T03:43:01.822Z,2.60
2018-03-26T03:45:31.163Z,2.50
2018-03-26T03:48:00.477Z,2.70
2018-03-26T03:50:29.737Z,2.70
2018-03-26T03:52:59.681Z,2.70
2018-03-26T03:55:28.886Z,2.70
2018-03-26T03:57:58.082Z,2.70
2018-03-26T04:00:28.070Z,2.70
2018-03-26T04:02:57.384Z,2.70
2018-03-26T04:05:26.611Z,2.80
2018-03-26T04:07:55.901Z,2.80
2018-03-26T04:10:25.192Z,2.90
2018-03-26T04:12:57.937Z,2.90
2018-03-26T04:15:27.948Z,3.00
2018-03-26T04:17:57.184Z,3.00
2018-03-26T04:20:26.418Z,3.00
2018-03-26T04:22:56.418Z,3.00
2018-03-26T04:25:26.431Z,3.10
2018-03-26T04:27:55.620Z,3.00
2018-03-26T04:30:24.877Z,3.10
2018-03-26T04:32:55.100Z,3.10
2018-03-26T04:35:25.131Z,3.20
2018-03-26T04:37:54.357Z,3.20
2018-03-26T04:40:24.352Z,3.30
2018-03-26T04:45:53.896Z,3.40
2018-03-26T04:48:33.411Z,3.30
2018-03-26T04:51:03.400Z,3.40
2018-03-26T04:53:32.739Z,3.30
2018-03-26T04:56:02.006Z,3.40
2018-03-26T04:58:36.914Z,3.40
2018-03-26T05:01:06.193Z,3.40
2018-03-26T05:03:37.212Z,3.40
2018-03-26T05:06:07.551Z,3.40
2018-03-26T05:08:36.818Z,3.40
2018-03-26T05:11:06.091Z,3.40
2018-03-26T05:13:36.065Z,3.50
2018-03-26T05:16:06.101Z,3.50
2018-03-26T05:18:35.320Z,3.50
2018-03-26T05:21:04.532Z,3.50
2018-03-26T05:23:33.754Z,3.50
2018-03-26T05:26:02.972Z,3.50
2018-03-26T05:28:32.192Z,3.60
2018-03-26T05:31:01.469Z,3.50
2018-03-26T05:33:30.836Z,3.60
2018-03-26T05:36:00.869Z,3.50
2018-03-26T05:38:50.028Z,3.50
2018-03-26T05:41:19.329Z,3.60
2018-03-26T05:43:48.571Z,3.60
2018-03-26T05:46:17.793Z,3.60
2018-03-26T05:48:47.888Z,3.60
2018-03-26T05:51:17.205Z,3.50
2018-03-26T05:53:46.403Z,3.50
2018-03-26T05:56:15.690Z,3.50
2018-03-26T05:58:45.125Z,3.60
2018-03-26T06:01:14.410Z,3.60
2018-03-26T06:03:43.668Z,3.60
2018-03-26T06:06:12.890Z,3.70
2018-03-26T06:08:42.101Z,3.70
2018-03-26T06:11:11.338Z,3.80
2018-03-26T06:13:40.606Z,3.90
2018-03-26T06:16:09.818Z,3.90
2018-03-26T06:18:39.086Z,4.00
2018-03-26T06:21:09.085Z,4.10
2018-03-26T06:23:38.351Z,4.10
2018-03-26T06:26:07.603Z,4.10
2018-03-26T06:28:36.861Z,4.20
2018-03-26T06:31:06.083Z,4.20
2018-03-26T06:33:35.334Z,4.20
2018-03-26T06:36:22.297Z,4.20
2018-03-26T06:38:54.886Z,4.30
2018-03-26T06:41:24.165Z,4.30
2018-03-26T06:43:53.371Z,4.30
2018-03-26T06:46:22.678Z,4.40
2018-03-26T06:48:51.990Z,4.40
2018-03-26T06:51:21.302Z,4.40
2018-03-26T06:53:50.490Z,4.50
2018-03-26T06:56:19.682Z,4.60
2018-03-26T06:58:48.970Z,4.60
2018-03-26T07:01:19.070Z,4.50
2018-03-26T07:03:48.283Z,4.50
2018-03-26T07:06:17.497Z,4.60
2018-03-26T07:08:46.722Z,4.50
2018-03-26T07:11:15.951Z,4.50
2018-03-26T07:13:45.940Z,4.60
2018-03-26T07:16:15.168Z,4.60
2018-03-26T07:18:44.464Z,4.70
2018-03-26T07:21:13.877Z,4.70
2018-03-26T07:23:43.109Z,4.80
2018-03-26T07:26:12.319Z,4.80
2018-03-26T07:28:41.526Z,4.90
2018-03-26T07:31:10.762Z,5.00
2018-03-26T07:33:40.842Z,5.10
2018-03-26T07:36:10.053Z,5.10
2018-03-26T07:38:39.340Z,5.20
2018-03-26T07:41:08.629Z,5.20
2018-03-26T07:43:37.844Z,5.20
2018-03-26T07:46:07.829Z,5.30
2018-03-26T07:48:37.289Z,5.30
2018-03-26T07:51:06.496Z,5.30
2018-03-26T07:53:36.587Z,5.60
2018-03-26T07:56:05.819Z,5.60
2018-03-26T07:58:35.055Z,5.80
2018-03-26T08:01:04.342Z,5.90
2018-03-26T08:03:33.530Z,6.00
2018-03-26T08:06:02.780Z,6.20
2018-03-26T08:08:31.998Z,6.30
2018-03-26T08:11:02.023Z,6.40
2018-03-26T08:13:31.400Z,6.40
2018-03-26T08:16:00.611Z,6.50
2018-03-26T08:18:29.840Z,6.60
2018-03-26T08:20:59.130Z,6.70
2018-03-26T08:23:28.341Z,6.80
2018-03-26T08:25:57.582Z,6.80
2018-03-26T08:28:26.781Z,6.90
2018-03-26T08:30:56.131Z,7.00
2018-03-26T08:33:25.317Z,7.10
2018-03-26T08:35:55.422Z,7.30
2018-03-26T08:38:24.655Z,7.30
2018-03-26T08:40:54.675Z,7.50
2018-03-26T08:43:23.976Z,7.50
2018-03-26T08:45:53.178Z,7.60
2018-03-26T08:48:22.393Z,7.70
2018-03-26T08:50:51.643Z,7.80
2018-03-26T08:53:23.095Z,7.80
2018-03-26T08:55:50.290Z,7.80
2018-03-26T08:58:20.257Z,7.90
2018-03-26T09:00:49.577Z,7.90
2018-03-26T09:03:18.757Z,8.10
2018-03-26T09:05:48.039Z,8.10
2018-03-26T09:08:17.312Z,8.20
2018-03-26T09:10:46.532Z,8.30
2018-03-26T09:13:15.849Z,8.30
2018-03-26T09:15:45.031Z,8.40
2018-03-26T09:18:14.301Z,8.60
2018-03-26T09:20:44.392Z,8.90
2018-03-26T09:23:13.609Z,8.90
2018-03-26T09:25:42.811Z,9.10
2018-03-26T09:28:12.047Z,9.20
2018-03-26T09:30:41.246Z,9.30
2018-03-26T09:33:10.483Z,9.30
2018-03-26T09:35:39.757Z,9.40
2018-03-26T09:38:08.993Z,9.50
2018-03-26T09:40:38.998Z,9.60
2018-03-26T09:43:08.310Z,9.60
2018-03-26T09:45:37.724Z,9.60
2018-03-26T09:48:06.967Z,9.70
2018-03-26T09:50:36.158Z,9.80
2018-03-26T09:53:05.381Z,9.90
2018-03-26T09:55:34.671Z,10.10
2018-03-26T09:58:03.982Z,10.20
2018-03-26T10:00:38.706Z,10.40
2018-03-26T10:03:07.952Z,10.40
2018-03-26T10:05:37.252Z,10.60
2018-03-26T10:08:06.456Z,10.80
2018-03-26T10:10:35.675Z,10.90
2018-03-26T10:13:04.981Z,11.10
2018-03-26T10:15:34.192Z,11.10
2018-03-26T10:18:03.414Z,11.20
2018-03-26T10:20:32.675Z,11.30
2018-03-26T10:23:02.029Z,11.30
2018-03-26T10:25:31.282Z,11.30
2018-03-26T10:28:00.496Z,11.20
2018-03-26T10:30:30.538Z,11.20
2018-03-26T10:32:59.756Z,11.20
2018-03-26T10:35:29.697Z,11.20
2018-03-26T10:37:59.006Z,11.20
2018-03-26T10:40:28.351Z,11.20
2018-03-26T10:42:57.658Z,11.20
2018-03-26T10:45:26.887Z,11.30
2018-03-26T10:47:56.129Z,11.40
2018-03-26T10:50:25.305Z,11.50
2018-03-26T10:52:54.617Z,11.50
2018-03-26T10:55:23.831Z,11.40
2018-03-26T10:57:53.060Z,11.30
2018-03-26T11:00:22.330Z,11.10
2018-03-26T11:02:51.554Z,11.10
2018-03-26T11:05:20.797Z,11.10
2018-03-26T11:07:50.042Z,11.10
2018-03-26T11:10:19.198Z,11.10
2018-03-26T11:12:48.414Z,11.10
2018-03-26T11:15:17.595Z,11.00
2018-03-26T11:17:46.916Z,11.10
2018-03-26T11:20:16.106Z,11.10
2018-03-26T11:22:45.459Z,11.30
2018-03-26T11:25:14.691Z,11.60
2018-03-26T11:27:43.906Z,11.90
2018-03-26T11:30:13.176Z,12.20
2018-03-26T11:32:42.455Z,12.60
2018-03-26T11:35:11.703Z,13.00
2018-03-26T11:37:40.898Z,13.40
2018-03-26T11:40:10.144Z,13.80
2018-03-26T11:42:39.436Z,14.20
2018-03-26T11:45:08.644Z,14.50
2018-03-26T11:47:37.925Z,14.80
2018-03-26T11:50:07.145Z,15.00
2018-03-26T11:52:36.342Z,15.30
2018-03-26T11:55:06.273Z,15.70
2018-03-26T11:57:35.486Z,15.70
2018-03-26T12:00:05.424Z,16.30
2018-03-26T12:02:34.759Z,16.30
2018-03-26T12:05:03.950Z,16.60
2018-03-26T12:07:34.306Z,17.20
2018-03-26T12:10:03.502Z,17.20
2018-03-26T12:12:32.827Z,17.40
2018-03-26T12:15:02.042Z,17.50
2018-03-26T12:17:31.289Z,17.50
2018-03-26T12:20:12.417Z,17.60
2018-03-26T12:22:41.659Z,17.50
2018-03-26T12:25:13.572Z,17.40
2018-03-26T12:27:54.677Z,17.40
2018-03-26T12:30:25.569Z,17.60
2018-03-26T12:32:54.779Z,17.50
2018-03-26T12:35:35.769Z,17.50
2018-03-26T12:38:04.984Z,17.30
2018-03-26T12:40:45.858Z,17.10
2018-03-26T12:43:15.071Z,17.00
2018-03-26T12:45:56.011Z,17.10
2018-03-26T12:48:25.175Z,17.20
2018-03-26T12:51:06.160Z,17.30
2018-03-26T12:56:45.056Z,17.50
2018-03-26T12:59:14.240Z,17.60
2018-03-26T13:05:03.252Z,17.50
2018-03-26T13:07:32.448Z,17.60
2018-03-26T13:10:01.704Z,17.80
2018-03-26T13:12:30.929Z,18.00
2018-03-26T13:15:00.879Z,18.10
2018-03-26T13:17:30.827Z,18.20
2018-03-26T13:20:00.106Z,18.20
2018-03-26T13:22:29.288Z,18.30
2018-03-26T13:24:58.518Z,18.30
2018-03-26T13:27:27.773Z,18.20
2018-03-26T13:29:56.960Z,18.00
2018-03-26T13:32:26.916Z,17.20
2018-03-26T13:34:56.099Z,17.20
2018-03-26T13:37:25.327Z,16.70
2018-03-26T13:39:54.540Z,16.20
2018-03-26T13:42:23.739Z,15.60
2018-03-26T13:44:52.951Z,15.10
2018-03-26T13:47:22.153Z,14.70
2018-03-26T13:49:51.322Z,14.10
2018-03-26T13:52:20.539Z,13.50
2018-03-26T13:54:49.789Z,12.80
2018-03-26T13:57:19.029Z,12.20
2018-03-26T13:59:48.226Z,11.80
2018-03-26T14:02:17.388Z,11.50
2018-03-26T14:04:46.772Z,11.20
2018-03-26T14:07:16.186Z,11.20
2018-03-26T14:09:57.140Z,10.90
2018-03-26T14:12:38.974Z,10.30
2018-03-26T14:15:20.078Z,10.30
2018-03-26T14:17:49.542Z,10.10
2018-03-26T14:20:19.581Z,10.00
2018-03-26T14:22:48.818Z,9.90
2018-03-26T14:25:18.029Z,9.90
2018-03-26T14:27:47.248Z,9.70
2018-03-26T14:30:16.559Z,9.70
2018-03-26T14:32:45.880Z,9.70
2018-03-26T14:38:19.797Z,9.50
2018-03-26T14:40:49.763Z,9.40
2018-03-26T14:43:18.987Z,9.40
2018-03-26T14:45:48.190Z,9.40
2018-03-26T14:48:17.420Z,9.30
2018-03-26T14:50:46.644Z,9.40
2018-03-26T14:53:15.928Z,9.40
2018-03-26T14:55:45.227Z,9.30
2018-03-26T14:58:14.541Z,9.30
2018-03-26T15:00:43.753Z,9.30
2018-03-26T15:03:12.949Z,9.40
2018-03-26T15:05:42.175Z,9.40
2018-03-26T15:08:11.399Z,9.40
2018-03-26T15:10:40.648Z,9.50
2018-03-26T15:13:09.816Z,9.40
2018-03-26T15:15:39.221Z,9.40
2018-03-26T15:18:08.537Z,9.40
2018-03-26T15:20:37.719Z,9.40
2018-03-26T15:23:06.963Z,9.40
2018-03-26T15:25:36.366Z,9.40
2018-03-26T15:28:05.688Z,9.40
2018-03-26T15:30:34.887Z,9.40
2018-03-26T15:33:04.077Z,9.50
2018-03-26T15:35:33.277Z,9.50
2018-03-26T15:38:02.508Z,9.50
2018-03-26T15:40:31.709Z,9.50
2018-03-26T15:43:00.963Z,9.60
2018-03-26T15:45:30.156Z,9.50
2018-03-26T15:47:59.353Z,9.50
2018-03-26T15:50:28.560Z,9.50
2018-03-26T15:52:57.777Z,9.40
2018-03-26T15:55:27.116Z,9.50
2018-03-26T15:58:07.785Z,9.50
2018-03-26T16:00:37.095Z,9.60
2018-03-26T16:03:11.836Z,9.60
2018-03-26T16:05:41.151Z,9.60
2018-03-26T16:08:10.368Z,9.60
2018-03-26T16:10:57.804Z,9.60
2018-03-26T16:13:27.087Z,9.50
2018-03-26T16:16:03.034Z,9.50
2018-03-26T16:18:33.297Z,9.50
2018-03-26T16:21:02.693Z,9.50
2018-03-26T16:23:38.806Z,9.50
2018-03-26T16:26:15.467Z,9.40
2018-03-26T16:32:06.050Z,9.20
2018-03-26T16:34:35.459Z,9.20
2018-03-26T16:37:04.689Z,9.10
2018-03-26T16:39:34.798Z,9.00
2018-03-26T16:42:16.008Z,9.00
2018-03-26T16:44:45.178Z,8.90
2018-03-26T16:47:14.438Z,8.90
2018-03-26T16:49:43.643Z,8.80
2018-03-26T16:55:32.120Z,8.80
2018-03-26T16:58:01.412Z,8.70
2018-03-26T17:00:34.222Z,8.70
2018-03-26T17:03:03.450Z,8.60
2018-03-26T17:05:32.660Z,8.50
2018-03-26T17:08:01.876Z,8.40
2018-03-26T17:10:31.136Z,8.30
2018-03-26T17:13:00.371Z,8.20
2018-03-26T17:15:29.651Z,8.20
2018-03-26T17:17:59.616Z,8.10
2018-03-26T17:20:28.868Z,8.10
2018-03-26T17:22:58.104Z,8.10
2018-03-26T17:25:28.129Z,8.10
2018-03-26T17:27:59.402Z,8.10
2018-03-26T17:30:28.623Z,8.10
2018-03-26T17:32:57.862Z,8.10
2018-03-26T17:35:27.107Z,8.10
2018-03-26T17:37:56.315Z,8.10
2018-03-26T17:40:39.712Z,8.00
2018-03-26T17:43:08.926Z,8.00
2018-03-26T17:45:38.167Z,8.00
2018-03-26T17:48:07.395Z,8.00
2018-03-26T17:50:36.639Z,7.90
2018-03-26T17:53:05.832Z,7.90
2018-03-26T17:55:35.105Z,7.90
2018-03-26T17:58:04.285Z,7.90
2018-03-26T18:00:33.464Z,7.90
2018-03-26T18:03:02.744Z,7.90
2018-03-26T18:05:31.936Z,7.90
2018-03-26T18:08:01.234Z,7.90
2018-03-26T18:10:30.665Z,7.90
2018-03-26T18:12:59.885Z,7.80
2018-03-26T18:15:29.109Z,7.70
2018-03-26T18:17:58.383Z,7.70
2018-03-26T18:20:27.635Z,7.70
2018-03-26T18:22:56.890Z,7.60
2018-03-26T18:25:26.915Z,7.50
2018-03-26T18:27:56.126Z,7.50
2018-03-26T18:30:25.382Z,7.50
2018-03-26T18:32:54.631Z,7.40
2018-03-26T18:35:25.723Z,7.40
2018-03-26T18:37:55.016Z,7.40
2018-03-26T18:40:45.082Z,7.40
2018-03-26T18:43:14.391Z,7.40
2018-03-26T18:45:47.168Z,7.40
2018-03-26T18:48:16.398Z,7.40
2018-03-26T18:50:46.403Z,7.40
2018-03-26T18:53:33.468Z,7.30
2018-03-26T18:56:04.130Z,7.40
2018-03-26T18:58:34.093Z,7.40
2018-03-26T19:01:14.602Z,7.40
2018-03-26T19:04:04.834Z,7.40
2018-03-26T19:06:34.899Z,7.30
2018-03-26T19:09:04.178Z,7.30
2018-03-26T19:11:33.421Z,7.30
2018-03-26T19:14:03.406Z,7.20
2018-03-26T19:16:36.785Z,7.20
2018-03-26T19:19:06.062Z,7.20
2018-03-26T19:21:37.561Z,7.20
2018-03-26T19:27:16.471Z,7.20
2018-03-26T19:36:02.134Z,7.20
2018-03-26T19:38:31.425Z,7.20
2018-03-26T19:41:00.603Z,7.10
2018-03-26T19:43:29.829Z,7.10
2018-03-26T19:45:59.172Z,7.10
2018-03-26T19:48:49.962Z,7.10
2018-03-26T19:57:28.283Z,7.10
2018-03-26T20:00:03.315Z,7.10
2018-03-26T20:02:32.721Z,7.10
2018-03-26T20:05:12.417Z,7.00
2018-03-26T20:07:41.589Z,7.10
2018-03-26T20:10:23.037Z,7.00
2018-03-26T20:12:52.234Z,7.00
2018-03-26T20:15:32.810Z,7.00
2018-03-26T20:18:02.819Z,6.90
2018-03-26T20:20:32.013Z,6.90
2018-03-26T20:23:01.213Z,6.90
2018-03-26T20:25:30.453Z,6.80
2018-03-26T20:28:00.585Z,6.70
2018-03-26T20:30:55.534Z,6.60
2018-03-26T20:33:25.041Z,6.50
2018-03-26T20:35:54.275Z,6.40
2018-03-26T20:38:23.636Z,6.30
2018-03-26T20:40:53.001Z,6.30
2018-03-26T20:43:37.078Z,6.10
2018-03-26T20:46:06.384Z,6.10
2018-03-26T20:48:35.612Z,6.00
2018-03-26T20:51:05.768Z,5.90
2018-03-26T20:53:35.002Z,5.90
2018-03-26T20:56:22.881Z,5.90
2018-03-26T20:58:52.192Z,5.90
2018-03-26T21:01:21.687Z,5.90
2018-03-26T21:03:51.681Z,6.00
2018-03-26T21:06:21.039Z,5.90
2018-03-26T21:08:50.248Z,5.90
2018-03-26T21:11:20.253Z,6.00
2018-03-26T21:14:13.770Z,6.00
2018-03-26T21:16:42.984Z,6.00
2018-03-26T21:19:12.967Z,5.90
2018-03-26T21:21:42.217Z,5.90
2018-03-26T21:24:11.691Z,6.00
2018-03-26T21:26:40.932Z,6.00
2018-03-26T21:29:10.956Z,5.90
2018-03-26T21:32:04.010Z,6.00
2018-03-26T21:34:34.029Z,5.90
2018-03-26T21:37:03.347Z,5.90
2018-03-26T21:39:32.610Z,5.90
2018-03-26T21:42:08.832Z,6.00
2018-03-26T21:44:38.145Z,6.00
2018-03-26T21:47:07.424Z,6.00
2018-03-26T21:49:36.874Z,5.90
2018-03-26T21:52:06.218Z,6.00
2018-03-26T21:54:36.528Z,6.00
2018-03-26T21:57:05.801Z,6.10
2018-03-26T21:59:35.905Z,6.10
2018-03-26T22:02:05.117Z,6.10
2018-03-26T22:04:35.305Z,6.20
2018-03-26T22:07:19.744Z,6.20
2018-03-26T22:09:49.100Z,6.20
2018-03-26T22:12:18.374Z,6.30
2018-03-26T22:15:11.412Z,6.20
2018-03-26T22:17:41.177Z,6.30
2018-03-26T22:20:10.354Z,6.30
2018-03-26T22:22:39.626Z,6.20
2018-03-26T22:25:08.822Z,6.20
2018-03-26T22:27:38.150Z,6.20
2018-03-26T22:30:08.286Z,6.00
2018-03-26T22:32:37.538Z,6.10
2018-03-26T22:35:06.919Z,6.00
2018-03-26T22:37:36.224Z,6.00
2018-03-26T22:40:05.469Z,6.00
2018-03-26T22:42:35.541Z,6.00
2018-03-26T22:45:04.711Z,6.00
2018-03-26T22:47:34.911Z,6.00
2018-03-26T22:50:04.326Z,6.00
2018-03-26T22:55:29.271Z,6.10
2018-03-26T22:57:59.713Z,6.00
2018-03-26T23:00:28.931Z,6.00
2018-03-26T23:02:58.216Z,6.00
2018-03-26T23:05:27.552Z,6.00
2018-03-26T23:07:57.032Z,6.00
2018-03-26T23:10:26.296Z,6.00
2018-03-26T23:12:56.357Z,6.00
2018-03-26T23:15:33.000Z,6.00
2018-03-26T23:18:02.471Z,6.00
2018-03-26T23:20:32.449Z,6.00
2018-03-26T23:23:01.747Z,6.00
2018-03-26T23:25:31.065Z,6.00
2018-03-26T23:28:00.373Z,6.00
2018-03-26T23:30:30.392Z,6.00
2018-03-26T23:32:59.610Z,6.00
2018-03-26T23:35:33.467Z,6.00
2018-03-26T23:38:04.040Z,5.90
2018-03-26T23:40:33.258Z,5.80
2018-03-26T23:43:03.327Z,5.70
2018-03-26T23:45:32.545Z,5.70
2018-03-26T23:48:01.989Z,5.70
2018-03-26T23:50:31.958Z,5.70
2018-03-26T23:53:01.292Z,5.70
2018-03-26T23:55:30.569Z,5.70
2018-03-26T23:57:59.772Z,5.80
